• Join FlightAware (Why Join?)
  • Login
  • US Flag 
03:09PM EST


 

Airport Tracker/Info


-or-


 

Live Flight TrackerFlight Track Log ✈ EJA729 ✈ 20-Jun-2013 ✈ KJAC - KMDW

Flight Track Log - Related Links

Times and Time Zones

All times are in EDT time to prevent confusion due to time zone crossing. See the EJA729 flight status page for this flight to view local times or setup timezone preferences in your user account.

Time Position Orientation Groundspeed Altitude Reporting Facility
EDT Latitude Longitude Course Direction KTS MPH feet Rate Location/Type
12:48PM 43.5842 -110.7494 85° East 152 175 7,500  Level Salt Lake Center
12:49PM 43.5306 -110.7850 206° Southwest 208 239 11,500 3,823 Climbing Salt Lake Center
12:50PM 43.4653 -110.7958 187° South 272 313 15,400 3,919 Climbing Salt Lake Center
12:51PM 43.4486 -110.6483 99° East 366 421 19,600 3,484 Climbing Salt Lake Center
12:52PM 43.9007 -108.9396 85° East  Level FlightAware Approximate
12:52PM 43.4539 -110.4925 87° East 395 455 22,600  Level Salt Lake Center
12:53PM 43.9116 -108.7659 85° East  Level FlightAware Approximate
12:53PM 43.4625 -110.3300 86° East 439 505 24,500  Level Salt Lake Center
12:54PM 43.4717 -110.1583 86° East 467 537 26,400 2,049 Climbing Salt Lake Center
12:55PM 43.4833 -109.9489 86° East 486 559 28,700 1,935 Climbing Salt Lake Center
12:56PM 43.4917 -109.7706 86° East 490 564 30,400 1,694 Climbing Salt Lake Center
12:57PM 43.5006 -109.5600 87° East 492 566 32,200 1,597 Climbing Salt Lake Center
12:58PM 43.5094 -109.3761 86° East 494 568 33,700 1,597 Climbing Salt Lake Center
12:59PM 43.5192 -109.1628 86° East 498 573 35,500 1,571 Climbing Salt Lake Center
01:00PM 43.5258 -108.9842 87° East 495 570 37,000 1,344 Climbing Salt Lake Center
01:01PM 43.5342 -108.7800 87° East 485 558 38,300 976 Climbing Salt Lake Center
01:02PM 43.5411 -108.6028 87° East 484 557 39,000 339 Climbing Salt Lake Center
01:03PM 43.5492 -108.3881 87° East 498 573 39,000  Level Salt Lake Center
01:04PM 43.5564 -108.2000 87° East 510 587 39,000  Level Salt Lake Center
01:05PM 43.5633 -107.9811 87° East 512 589 39,000  Level Salt Lake Center
01:06PM 43.5697 -107.7942 87° East 511 588 39,000  Level Salt Lake Center
01:07PM 43.5758 -107.6053 87° East 513 590 39,000  Level Salt Lake Center
01:08PM 43.5822 -107.3847 88° East 515 593 39,000  Level Salt Lake Center
01:09PM 43.5867 -107.1789 88° East 512 589 39,000  Level Salt Lake Center
01:10PM 43.5889 -107.0844 88° East 510 587 39,000  Level Denver Center
01:11PM 43.5936 -106.8350 88° East 510 587 39,000  Level Denver Center
01:12PM 43.6008 -106.6131 87° East 515 593 39,000  Level Denver Center
01:13PM 43.6033 -106.4242 89° East 515 593 39,000  Level Denver Center
01:14PM 43.6069 -106.2356 88° East 515 593 39,000  Level Denver Center
01:15PM 43.6100 -106.0147 89° East 515 593 39,000  Level Denver Center
01:16PM 43.6131 -105.8278 89° East 511 588 39,000  Level Denver Center
01:17PM 43.6150 -105.6092 89° East 511 588 39,000  Level Denver Center
01:18PM 43.6175 -105.4217 89° East 510 587 39,000  Level Denver Center
01:19PM 43.6189 -105.2061 89° East 507 583 39,000  Level Denver Center
01:20PM 43.6194 -105.0194 90° East 506 582 39,000  Level Denver Center
01:21PM 43.6211 -104.8008 89° East 507 583 39,000  Level Denver Center
01:22PM 43.6217 -104.6119 90° East 509 586 39,000  Level Denver Center
01:24PM 43.6225 -104.4225 90° East 512 589 39,000  Level Denver Center
01:25PM 43.6222 -104.2019 90° East 513 590 39,000  Level Denver Center
01:26PM 43.6217 -104.0147 90° East 512 589 39,000  Level Denver Center
01:27PM 43.6211 -103.8267 90° East 511 588 39,000  Level Denver Center
01:28PM 43.6203 -103.6056 90° East 514 592 39,000  Level Denver Center
01:29PM 43.6181 -103.3867 91° East 513 590 39,000  Level Denver Center
01:30PM 43.6167 -103.1992 91° East 511 588 39,000  Level Denver Center
01:31PM 43.6144 -102.9825 91° East 505 581 39,000  Level Denver Center
01:32PM 43.6117 -102.7967 91° East 506 582 39,000  Level Denver Center
01:33PM 43.6089 -102.6422 91° East 504 580 39,000  Level Denver Center
01:34PM 43.6058 -102.3942 91° East 508 585 39,000  Level Denver Center
01:35PM 43.6022 -102.2072 91° East 510 587 39,000  Level Denver Center
01:36PM 43.5981 -101.9944 91° East 510 587 39,000  Level Denver Center
01:37PM 43.5939 -101.7994 92° East 510 587 39,000  Level Denver Center
01:38PM 43.5889 -101.6058 92° East 508 585 39,000  Level Denver Center
01:39PM 43.5831 -101.3706 92° East 513 590 39,000  Level Denver Center
01:40PM 43.5778 -101.1747 92° East 513 590 39,000  Level Denver Center
01:41PM 43.5725 -100.9789 92° East 515 593 39,000  Level Denver Center
01:42PM 43.5669 -100.7842 92° East 512 589 39,000  Level Denver Center
01:43PM 43.5608 -100.5889 92° East 510 587 39,000  Level Denver Center
01:44PM 43.5542 -100.3919 93° East 512 589 39,000  Level Denver Center
01:45PM 43.5508 -100.3136 93° East 515 593 39,000  Level Minneapolis Center
01:46PM 43.5422 -100.0450 92° East 508 585 39,000  Level Minneapolis Center
01:47PM 43.5344 -99.8500 93° East 510 587 39,000  Level Minneapolis Center
01:48PM 43.5267 -99.6550 93° East 511 588 39,000  Level Minneapolis Center
01:49PM 43.5189 -99.4614 93° East 510 587 39,000  Level Minneapolis Center
01:50PM 43.5108 -99.2681 93° East 509 586 39,000  Level Minneapolis Center
01:51PM 43.5022 -99.0761 93° East 507 583 39,000  Level Minneapolis Center
01:52PM 43.4908 -98.8425 94° East 510 587 39,000  Level Minneapolis Center
01:53PM 43.4814 -98.6372 94° East 511 588 39,000  Level Minneapolis Center
01:54PM 43.4706 -98.4433 94° East 510 587 39,000  Level Minneapolis Center
01:55PM 43.4581 -98.2125 94° East 507 583 39,000  Level Minneapolis Center
01:56PM 43.4489 -98.0217 94° East 505 581 39,000  Level Minneapolis Center
01:57PM 43.4386 -97.8317 94° East 501 577 39,000  Level Minneapolis Center
01:58PM 43.4286 -97.6406 94° East 503 579 39,000  Level Minneapolis Center
01:59PM 43.4142 -97.4083 95° East 509 586 39,000  Level Minneapolis Center
02:01PM 43.4042 -97.2553 95° East 507 583 39,000  Level Minneapolis Center
02:02PM 43.3897 -97.0256 95° East 507 583 39,000  Level Minneapolis Center
02:03PM 43.3778 -96.8339 95° East 508 585 39,000  Level Minneapolis Center
02:04PM 43.3650 -96.6436 95° East 505 581 39,000  Level Minneapolis Center
02:05PM 43.3494 -96.4128 95° East 508 585 39,000  Level Minneapolis Center
02:06PM 43.3361 -96.2208 95° East 509 586 39,000  Level Minneapolis Center
02:07PM 43.3231 -96.0294 95° East 509 586 39,000  Level Minneapolis Center
02:08PM 43.3067 -95.8011 96° East 505 581 39,000  Level Minneapolis Center
02:09PM 43.2950 -95.6497 96° East 504 580 39,000  Level Minneapolis Center
02:10PM 43.2742 -95.3842 96° East 502 578 39,000  Level Minneapolis Center
02:11PM 43.2597 -95.1944 96° East 503 579 39,000 -629 Level Minneapolis Center
02:12PM 43.2444 -95.0058 96° East 501 577 37,700 -1,161 Descending Minneapolis Center
02:13PM 43.2314 -94.8547 97° East 502 578 36,600 -1,210 Descending Minneapolis Center
02:14PM 43.2164 -94.6681 96° East 498 573 35,200 -774 Descending Minneapolis Center
02:15PM 43.1953 -94.4156 96° East 483 556 35,000 -97 Descending Minneapolis Center
02:16PM 43.1789 -94.2400 97° East 480 552 35,000  Level Minneapolis Center
02:17PM 43.1611 -94.0592 98° East 483 556 35,000  Level Minneapolis Center
02:18PM 43.1458 -93.8797 97° East 480 552 35,000  Level Minneapolis Center
02:19PM 43.1300 -93.6992 97° East 481 554 35,000 -97 Level Minneapolis Center
02:20PM 43.1086 -93.4839 98° East 483 556 34,800 -823 Descending Minneapolis Center
02:21PM 43.0814 -93.3044 102° East 487 560 33,300 -1,355 Descending Minneapolis Center
02:22PM 43.0089 -93.1447 122° Southeast 495 570 32,000 -1,065 Descending Minneapolis Center
02:23PM 42.9325 -92.9853 123° Southeast 504 580 31,100 -594 Descending Minneapolis Center
02:24PM 42.8708 -92.8561 123° Southeast 504 580 31,000 -59 Descending Chicago Center
02:25PM 42.7964 -92.7008 123° Southeast 499 574 31,000  Level Chicago Center
02:26PM 42.7228 -92.5453 123° Southeast 495 570 31,000 -48 Level Chicago Center
02:27PM 42.6492 -92.3908 123° Southeast 494 568 30,900 -484 Descending Chicago Center
02:28PM 42.5750 -92.2361 123° Southeast 497 572 30,000 -968 Descending Chicago Center
02:29PM 42.4839 -92.0458 123° Southeast 507 583 28,900 -968 Descending Chicago Center
02:30PM 42.4061 -91.8872 124° Southeast 513 590 28,000 -823 Descending Chicago Center
02:31PM 42.3269 -91.7222 123° Southeast 527 606 27,200 -823 Descending Chicago Center
02:32PM 42.2475 -91.5597 123° Southeast 529 609 26,300 -968 Descending Chicago Center
02:33PM 42.1497 -91.3644 124° Southeast 531 611 25,200 -968 Descending Chicago Center
02:34PM 42.0681 -91.2008 124° Southeast 532 612 24,300 -581 Descending Chicago Center
02:36PM 41.9872 -91.0369 124° Southeast 533 613 24,000 -144 Descending Chicago Center
02:37PM 41.9072 -90.8781 124° Southeast 522 601 24,000  Level Chicago Center
02:38PM 41.8117 -90.6881 124° Southeast 517 595 24,000 -339 Level Chicago Center
02:39PM 41.7333 -90.5347 124° Southeast 516 594 23,300 -1,403 Descending Chicago Center
02:40PM 41.6508 -90.3856 126° Southeast 501 577 21,100 -1,790 Descending Chicago Center
02:41PM 41.5717 -90.2567 129° Southeast 463 533 19,600 -1,258 Descending Chicago Center
02:42PM 41.4956 -90.1342 130° Southeast 436 502 18,500 -1,113 Descending Chicago Center
02:43PM 41.4064 -89.9875 129° Southeast 425 489 17,300 -1,113 Descending Chicago Center
02:44PM 41.3706 -89.8503 109° East 408 470 16,200 -1,016 Descending Chicago Center
02:45PM 41.3881 -89.7047 81° East 401 461 15,200 -1,016 Descending Chicago Center
02:46PM 41.4064 -89.5606 80° East 395 455 14,100 -1,065 Descending Chicago Center
02:47PM 41.4219 -89.4211 81° East 384 442 13,000 -1,113 Descending Chicago Center
02:48PM 41.4378 -89.2867 81° East 372 428 11,800 -1,296 Descending Chicago Center
02:49PM 41.4558 -89.1228 82° East 371 427 10,300 -864 Descending Chicago Center
02:50PM 41.4642 -88.9989 85° East 342 394 10,000 -774 Descending Chicago Center
02:51PM 41.4778 -88.8944 80° East 291 335 8,700 -1,210 Descending Chicago Center
02:52PM 41.4903 -88.7892 81° East 288 331 7,500 -1,258 Descending Chicago Center
02:53PM 41.5036 -88.6883 80° East 281 323 6,100 -1,161 Descending Chicago Center
02:54PM 41.5181 -88.5661 81° East 279 321 5,100 -532 Descending Chicago Center
02:55PM 41.5300 -88.4658 81° East 276 318 5,000 -48 Descending Chicago Center
02:56PM 41.5378 -88.3628 84° East 278 320 5,000  Level Chicago Center
02:57PM 41.5456 -88.2594 84° East 280 322 5,000  Level Chicago Center
02:58PM 41.5542 -88.1547 84° East 282 325 5,000  Level Chicago Center
02:59PM 41.5697 -88.0683 76° East 247 284 5,000 -774 Level Chicago Center
03:00PM 41.5992 -87.9933 62° Northeast 232 267 3,400 -968 Descending Chicago Center
03:01PM 41.6019 -87.9225 87° East 202 232 3,000 -192 Descending Chicago Center
03:02PM 41.5689 -87.8806 136° Southeast 197 227 3,000  Level Chicago Center
03:03PM 41.5331 -87.9233 222° Southwest 193 222 3,000  Level Chicago Center
03:05PM 41.5606 -87.9806 303° West 190 219 3,000  Level Chicago Center
03:06PM 41.6036 -87.9833 357° North 189 217 3,000  Level Chicago Center
03:07PM 41.6489 -87.9244 44° Northeast 190 219 3,000  Level Chicago Center
03:08PM 41.6858 -87.8775 43° Northeast 188 216 3,000 -435 Level Chicago Center
03:09PM 41.7247 -87.8297 43° Northeast 188 216 2,100 -871 Descending Chicago Center
03:10PM 41.7589 -87.7856 44° Northeast 182 209 1,200 -484 Descending Chicago Center
03:11PM 41.7903 -87.7450 44° Northeast 179 206 1,100 -97 Descending Chicago Center